sensor_id;sensor_type;location;lat;lon;timestamp;P1;durP1;ratioP1;P2;durP2;ratioP2
52948;SDS011;38812;50.942;3.644;2022-10-15T00:00:52;19.67;;;13.88;;
52948;SDS011;38812;50.942;3.644;2022-10-15T00:03:18;21.52;;;14.75;;
52948;SDS011;38812;50.942;3.644;2022-10-15T00:05:43;18.20;;;14.07;;
52948;SDS011;38812;50.942;3.644;2022-10-15T00:08:09;15.93;;;12.68;;
52948;SDS011;38812;50.942;3.644;2022-10-15T00:10:35;17.45;;;14.38;;
52948;SDS011;38812;50.942;3.644;2022-10-15T00:13:01;18.77;;;13.20;;
52948;SDS011;38812;50.942;3.644;2022-10-15T00:15:28;17.90;;;13.20;;
52948;SDS011;38812;50.942;3.644;2022-10-15T00:17:54;20.70;;;13.95;;
52948;SDS011;38812;50.942;3.644;2022-10-15T00:20:19;17.85;;;14.07;;
52948;SDS011;38812;50.942;3.644;2022-10-15T00:22:44;17.85;;;15.35;;
52948;SDS011;38812;50.942;3.644;2022-10-15T00:25:10;19.85;;;12.43;;
52948;SDS011;38812;50.942;3.644;2022-10-15T00:27:35;16.23;;;13.10;;
52948;SDS011;38812;50.942;3.644;2022-10-15T00:30:02;16.95;;;13.02;;
52948;SDS011;38812;50.942;3.644;2022-10-15T00:32:29;26.63;;;14.45;;
52948;SDS011;38812;50.942;3.644;2022-10-15T00:34:55;21.33;;;13.45;;
52948;SDS011;38812;50.942;3.644;2022-10-15T00:37:20;20.63;;;13.40;;
52948;SDS011;38812;50.942;3.644;2022-10-15T00:39:46;18.48;;;13.40;;
52948;SDS011;38812;50.942;3.644;2022-10-15T00:42:12;18.27;;;12.73;;
52948;SDS011;38812;50.942;3.644;2022-10-15T00:47:17;14.98;;;10.63;;
52948;SDS011;38812;50.942;3.644;2022-10-15T00:50:23;12.18;;;10.10;;
52948;SDS011;38812;50.942;3.644;2022-10-15T00:55:30;13.00;;;8.98;;
52948;SDS011;38812;50.942;3.644;2022-10-15T00:57:59;10.85;;;8.88;;
52948;SDS011;38812;50.942;3.644;2022-10-15T01:00:29;20.03;;;10.97;;
52948;SDS011;38812;50.942;3.644;2022-10-15T01:02:55;12.88;;;8.93;;
52948;SDS011;38812;50.942;3.644;2022-10-15T01:05:21;11.88;;;9.77;;
52948;SDS011;38812;50.942;3.644;2022-10-15T01:07:48;17.27;;;10.65;;
52948;SDS011;38812;50.942;3.644;2022-10-15T01:10:13;14.15;;;10.63;;
52948;SDS011;38812;50.942;3.644;2022-10-15T01:15:43;15.82;;;11.57;;
52948;SDS011;38812;50.942;3.644;2022-10-15T01:18:14;17.30;;;12.73;;
52948;SDS011;38812;50.942;3.644;2022-10-15T01:32:28;16.92;;;12.25;;
52948;SDS011;38812;50.942;3.644;2022-10-15T01:40:15;20.15;;;15.35;;
52948;SDS011;38812;50.942;3.644;2022-10-15T01:42:55;18.98;;;14.40;;
52948;SDS011;38812;50.942;3.644;2022-10-15T01:45:45;18.92;;;14.93;;
52948;SDS011;38812;50.942;3.644;2022-10-15T01:48:12;19.30;;;14.65;;
52948;SDS011;38812;50.942;3.644;2022-10-15T01:50:41;21.50;;;16.00;;
52948;SDS011;38812;50.942;3.644;2022-10-15T01:53:10;20.30;;;14.18;;
52948;SDS011;38812;50.942;3.644;2022-10-15T01:55:40;19.08;;;14.80;;
52948;SDS011;38812;50.942;3.644;2022-10-15T01:58:07;17.95;;;14.25;;
52948;SDS011;38812;50.942;3.644;2022-10-15T02:00:35;18.63;;;14.40;;
52948;SDS011;38812;50.942;3.644;2022-10-15T02:03:03;18.00;;;14.10;;
52948;SDS011;38812;50.942;3.644;2022-10-15T02:05:29;18.63;;;14.00;;
52948;SDS011;38812;50.942;3.644;2022-10-15T02:13:23;18.10;;;14.48;;
52948;SDS011;38812;50.942;3.644;2022-10-15T02:16:16;18.52;;;14.50;;
52948;SDS011;38812;50.942;3.644;2022-10-15T02:24:34;19.88;;;14.70;;
52948;SDS011;38812;50.942;3.644;2022-10-15T02:27:05;20.38;;;14.82;;
52948;SDS011;38812;50.942;3.644;2022-10-15T02:29:34;18.85;;;14.68;;
52948;SDS011;38812;50.942;3.644;2022-10-15T02:32:01;16.10;;;14.27;;
52948;SDS011;38812;50.942;3.644;2022-10-15T02:34:30;16.20;;;14.45;;
52948;SDS011;38812;50.942;3.644;2022-10-15T02:36:57;16.70;;;13.27;;
52948;SDS011;38812;50.942;3.644;2022-10-15T02:39:25;20.17;;;14.30;;
52948;SDS011;38812;50.942;3.644;2022-10-15T02:41:54;15.52;;;13.23;;
52948;SDS011;38812;50.942;3.644;2022-10-15T02:44:21;14.02;;;12.00;;
52948;SDS011;38812;50.942;3.644;2022-10-15T02:46:46;13.73;;;12.30;;
52948;SDS011;38812;50.942;3.644;2022-10-15T02:49:12;14.95;;;12.13;;
52948;SDS011;38812;50.942;3.644;2022-10-15T02:51:37;15.07;;;11.68;;
52948;SDS011;38812;50.942;3.644;2022-10-15T02:54:05;17.23;;;12.80;;
52948;SDS011;38812;50.942;3.644;2022-10-15T02:56:32;19.33;;;12.60;;
52948;SDS011;38812;50.942;3.644;2022-10-15T02:58:58;13.15;;;11.77;;
52948;SDS011;38812;50.942;3.644;2022-10-15T03:01:23;13.55;;;11.75;;
52948;SDS011;38812;50.942;3.644;2022-10-15T03:03:49;15.90;;;12.65;;
52948;SDS011;38812;50.942;3.644;2022-10-15T03:06:14;13.85;;;11.02;;
52948;SDS011;38812;50.942;3.644;2022-10-15T03:08:40;19.00;;;12.48;;
52948;SDS011;38812;50.942;3.644;2022-10-15T03:11:09;15.43;;;12.80;;
52948;SDS011;38812;50.942;3.644;2022-10-15T03:13:35;18.02;;;13.07;;
52948;SDS011;38812;50.942;3.644;2022-10-15T03:16:04;20.20;;;13.50;;
52948;SDS011;38812;50.942;3.644;2022-10-15T03:18:31;18.90;;;14.02;;
52948;SDS011;38812;50.942;3.644;2022-10-15T03:20:57;19.02;;;14.25;;
52948;SDS011;38812;50.942;3.644;2022-10-15T03:23:23;17.35;;;14.20;;
52948;SDS011;38812;50.942;3.644;2022-10-15T03:25:49;21.13;;;15.45;;
52948;SDS011;38812;50.942;3.644;2022-10-15T03:28:14;22.75;;;16.92;;
52948;SDS011;38812;50.942;3.644;2022-10-15T03:30:40;26.58;;;16.48;;
52948;SDS011;38812;50.942;3.644;2022-10-15T03:33:07;28.55;;;18.42;;
52948;SDS011;38812;50.942;3.644;2022-10-15T03:35:32;28.05;;;18.63;;
52948;SDS011;38812;50.942;3.644;2022-10-15T03:37:58;31.10;;;19.85;;
52948;SDS011;38812;50.942;3.644;2022-10-15T03:40:23;36.05;;;22.90;;
52948;SDS011;38812;50.942;3.644;2022-10-15T03:42:51;37.08;;;23.35;;
52948;SDS011;38812;50.942;3.644;2022-10-15T03:45:18;33.63;;;24.55;;
52948;SDS011;38812;50.942;3.644;2022-10-15T03:47:44;41.83;;;24.27;;
52948;SDS011;38812;50.942;3.644;2022-10-15T03:50:09;41.25;;;24.90;;
52948;SDS011;38812;50.942;3.644;2022-10-15T03:52:36;37.30;;;25.15;;
52948;SDS011;38812;50.942;3.644;2022-10-15T03:55:02;34.70;;;24.63;;
52948;SDS011;38812;50.942;3.644;2022-10-15T03:57:28;38.30;;;24.95;;
52948;SDS011;38812;50.942;3.644;2022-10-15T03:59:54;35.00;;;22.13;;
52948;SDS011;38812;50.942;3.644;2022-10-15T04:02:19;39.42;;;22.60;;
52948;SDS011;38812;50.942;3.644;2022-10-15T04:04:44;33.42;;;21.42;;
52948;SDS011;38812;50.942;3.644;2022-10-15T04:07:10;29.77;;;20.77;;
52948;SDS011;38812;50.942;3.644;2022-10-15T04:09:35;25.77;;;18.83;;
52948;SDS011;38812;50.942;3.644;2022-10-15T04:12:00;27.15;;;18.55;;
52948;SDS011;38812;50.942;3.644;2022-10-15T04:14:26;27.30;;;18.80;;
52948;SDS011;38812;50.942;3.644;2022-10-15T04:16:51;27.90;;;18.70;;
52948;SDS011;38812;50.942;3.644;2022-10-15T04:19:17;28.98;;;19.13;;
52948;SDS011;38812;50.942;3.644;2022-10-15T04:21:42;27.08;;;18.67;;
52948;SDS011;38812;50.942;3.644;2022-10-15T04:24:07;25.02;;;17.90;;
52948;SDS011;38812;50.942;3.644;2022-10-15T04:26:33;22.98;;;17.60;;
52948;SDS011;38812;50.942;3.644;2022-10-15T04:28:59;25.27;;;18.88;;
52948;SDS011;38812;50.942;3.644;2022-10-15T04:31:24;23.30;;;17.02;;
52948;SDS011;38812;50.942;3.644;2022-10-15T04:33:49;22.67;;;16.58;;
52948;SDS011;38812;50.942;3.644;2022-10-15T04:36:15;26.20;;;16.88;;
52948;SDS011;38812;50.942;3.644;2022-10-15T04:38:40;20.73;;;14.50;;
52948;SDS011;38812;50.942;3.644;2022-10-15T04:41:07;20.73;;;15.48;;
52948;SDS011;38812;50.942;3.644;2022-10-15T04:43:34;16.77;;;13.30;;
52948;SDS011;38812;50.942;3.644;2022-10-15T04:46:01;20.38;;;15.25;;
52948;SDS011;38812;50.942;3.644;2022-10-15T04:48:28;19.58;;;13.43;;
52948;SDS011;38812;50.942;3.644;2022-10-15T04:50:54;17.98;;;12.30;;
52948;SDS011;38812;50.942;3.644;2022-10-15T04:53:26;19.23;;;11.50;;
52948;SDS011;38812;50.942;3.644;2022-10-15T04:55:51;18.15;;;12.20;;
52948;SDS011;38812;50.942;3.644;2022-10-15T04:58:17;16.77;;;11.70;;
52948;SDS011;38812;50.942;3.644;2022-10-15T05:00:42;19.05;;;11.13;;
52948;SDS011;38812;50.942;3.644;2022-10-15T05:03:07;12.25;;;10.07;;
52948;SDS011;38812;50.942;3.644;2022-10-15T05:05:33;15.55;;;9.98;;
52948;SDS011;38812;50.942;3.644;2022-10-15T05:08:01;13.55;;;9.95;;
52948;SDS011;38812;50.942;3.644;2022-10-15T05:10:28;12.98;;;9.60;;
52948;SDS011;38812;50.942;3.644;2022-10-15T05:12:53;13.55;;;10.05;;
52948;SDS011;38812;50.942;3.644;2022-10-15T05:15:19;12.80;;;9.07;;
52948;SDS011;38812;50.942;3.644;2022-10-15T05:17:44;16.08;;;9.93;;
52948;SDS011;38812;50.942;3.644;2022-10-15T05:20:10;11.70;;;9.48;;
52948;SDS011;38812;50.942;3.644;2022-10-15T05:22:35;12.32;;;8.60;;
52948;SDS011;38812;50.942;3.644;2022-10-15T05:25:00;13.73;;;9.23;;
52948;SDS011;38812;50.942;3.644;2022-10-15T05:27:26;13.10;;;9.02;;
52948;SDS011;38812;50.942;3.644;2022-10-15T05:29:51;13.48;;;9.48;;
52948;SDS011;38812;50.942;3.644;2022-10-15T05:32:16;13.98;;;9.55;;
52948;SDS011;38812;50.942;3.644;2022-10-15T05:34:42;15.77;;;10.90;;
52948;SDS011;38812;50.942;3.644;2022-10-15T05:37:07;15.05;;;9.85;;
52948;SDS011;38812;50.942;3.644;2022-10-15T05:39:32;13.60;;;10.32;;
52948;SDS011;38812;50.942;3.644;2022-10-15T05:41:58;13.50;;;10.57;;
52948;SDS011;38812;50.942;3.644;2022-10-15T05:44:23;16.67;;;10.80;;
52948;SDS011;38812;50.942;3.644;2022-10-15T05:46:48;17.17;;;10.70;;
52948;SDS011;38812;50.942;3.644;2022-10-15T05:49:14;17.35;;;11.30;;
52948;SDS011;38812;50.942;3.644;2022-10-15T05:51:39;18.52;;;11.35;;
52948;SDS011;38812;50.942;3.644;2022-10-15T05:54:04;17.45;;;11.35;;
52948;SDS011;38812;50.942;3.644;2022-10-15T05:56:30;21.23;;;11.93;;
52948;SDS011;38812;50.942;3.644;2022-10-15T05:58:55;20.33;;;11.38;;
52948;SDS011;38812;50.942;3.644;2022-10-15T06:01:22;19.25;;;10.93;;
52948;SDS011;38812;50.942;3.644;2022-10-15T06:03:47;19.05;;;11.30;;
52948;SDS011;38812;50.942;3.644;2022-10-15T06:06:20;15.02;;;11.02;;
52948;SDS011;38812;50.942;3.644;2022-10-15T06:08:49;18.55;;;11.60;;
52948;SDS011;38812;50.942;3.644;2022-10-15T06:11:15;17.50;;;11.50;;
52948;SDS011;38812;50.942;3.644;2022-10-15T06:13:41;25.80;;;12.32;;
52948;SDS011;38812;50.942;3.644;2022-10-15T06:16:07;36.78;;;25.42;;
52948;SDS011;38812;50.942;3.644;2022-10-15T06:18:34;15.63;;;10.77;;
52948;SDS011;38812;50.942;3.644;2022-10-15T06:21:00;16.58;;;10.73;;
52948;SDS011;38812;50.942;3.644;2022-10-15T06:23:25;16.45;;;11.10;;
52948;SDS011;38812;50.942;3.644;2022-10-15T06:25:51;15.02;;;11.00;;
52948;SDS011;38812;50.942;3.644;2022-10-15T06:28:16;15.93;;;10.65;;
52948;SDS011;38812;50.942;3.644;2022-10-15T06:30:42;14.50;;;10.73;;
52948;SDS011;38812;50.942;3.644;2022-10-15T06:33:08;14.05;;;10.35;;
52948;SDS011;38812;50.942;3.644;2022-10-15T06:35:34;15.70;;;11.35;;
52948;SDS011;38812;50.942;3.644;2022-10-15T06:38:03;14.90;;;10.20;;
52948;SDS011;38812;50.942;3.644;2022-10-15T06:40:29;12.43;;;9.18;;
52948;SDS011;38812;50.942;3.644;2022-10-15T06:43:01;15.55;;;10.10;;
52948;SDS011;38812;50.942;3.644;2022-10-15T06:45:28;14.93;;;9.82;;
52948;SDS011;38812;50.942;3.644;2022-10-15T06:47:54;15.45;;;10.80;;
52948;SDS011;38812;50.942;3.644;2022-10-15T06:50:19;15.02;;;9.70;;
52948;SDS011;38812;50.942;3.644;2022-10-15T06:52:44;17.25;;;9.57;;
52948;SDS011;38812;50.942;3.644;2022-10-15T06:55:09;16.90;;;10.48;;
52948;SDS011;38812;50.942;3.644;2022-10-15T06:57:35;14.90;;;10.05;;
52948;SDS011;38812;50.942;3.644;2022-10-15T07:00:00;16.60;;;10.60;;
52948;SDS011;38812;50.942;3.644;2022-10-15T07:02:25;18.10;;;11.10;;
52948;SDS011;38812;50.942;3.644;2022-10-15T07:04:51;16.20;;;11.63;;
52948;SDS011;38812;50.942;3.644;2022-10-15T07:07:16;19.20;;;11.63;;
52948;SDS011;38812;50.942;3.644;2022-10-15T07:09:42;15.02;;;10.52;;
52948;SDS011;38812;50.942;3.644;2022-10-15T07:12:07;17.98;;;11.15;;
52948;SDS011;38812;50.942;3.644;2022-10-15T07:14:32;17.20;;;10.75;;
52948;SDS011;38812;50.942;3.644;2022-10-15T07:16:58;18.25;;;11.63;;
52948;SDS011;38812;50.942;3.644;2022-10-15T07:19:23;17.38;;;10.80;;
52948;SDS011;38812;50.942;3.644;2022-10-15T07:21:49;18.85;;;11.32;;
52948;SDS011;38812;50.942;3.644;2022-10-15T07:24:15;16.27;;;10.65;;
52948;SDS011;38812;50.942;3.644;2022-10-15T07:26:40;16.60;;;10.07;;
52948;SDS011;38812;50.942;3.644;2022-10-15T07:29:05;15.25;;;10.43;;
52948;SDS011;38812;50.942;3.644;2022-10-15T07:31:31;22.35;;;11.43;;
52948;SDS011;38812;50.942;3.644;2022-10-15T07:33:57;20.25;;;11.07;;
52948;SDS011;38812;50.942;3.644;2022-10-15T07:36:23;17.05;;;10.57;;
52948;SDS011;38812;50.942;3.644;2022-10-15T07:38:49;18.02;;;10.63;;
52948;SDS011;38812;50.942;3.644;2022-10-15T07:41:15;16.45;;;10.95;;
52948;SDS011;38812;50.942;3.644;2022-10-15T07:43:40;15.50;;;10.27;;
52948;SDS011;38812;50.942;3.644;2022-10-15T07:46:05;17.67;;;10.50;;
52948;SDS011;38812;50.942;3.644;2022-10-15T07:48:31;19.02;;;11.35;;
52948;SDS011;38812;50.942;3.644;2022-10-15T07:50:57;21.73;;;10.68;;
52948;SDS011;38812;50.942;3.644;2022-10-15T07:53:24;17.02;;;10.75;;
52948;SDS011;38812;50.942;3.644;2022-10-15T07:55:51;15.93;;;10.82;;
52948;SDS011;38812;50.942;3.644;2022-10-15T07:58:17;16.17;;;10.45;;
52948;SDS011;38812;50.942;3.644;2022-10-15T08:00:42;14.52;;;9.52;;
52948;SDS011;38812;50.942;3.644;2022-10-15T08:03:08;16.52;;;10.00;;
52948;SDS011;38812;50.942;3.644;2022-10-15T08:05:33;17.38;;;9.32;;
52948;SDS011;38812;50.942;3.644;2022-10-15T08:07:59;9.82;;;7.05;;
52948;SDS011;38812;50.942;3.644;2022-10-15T08:10:25;12.40;;;8.13;;
52948;SDS011;38812;50.942;3.644;2022-10-15T08:12:51;10.95;;;7.00;;
52948;SDS011;38812;50.942;3.644;2022-10-15T08:15:16;8.07;;;5.88;;
52948;SDS011;38812;50.942;3.644;2022-10-15T08:17:42;9.52;;;6.72;;
52948;SDS011;38812;50.942;3.644;2022-10-15T08:20:07;10.45;;;6.03;;
52948;SDS011;38812;50.942;3.644;2022-10-15T08:22:33;7.78;;;5.32;;
52948;SDS011;38812;50.942;3.644;2022-10-15T08:24:59;7.70;;;4.82;;
52948;SDS011;38812;50.942;3.644;2022-10-15T08:27:24;8.05;;;4.43;;
52948;SDS011;38812;50.942;3.644;2022-10-15T08:29:50;5.78;;;4.47;;
52948;SDS011;38812;50.942;3.644;2022-10-15T08:32:15;7.32;;;4.63;;
52948;SDS011;38812;50.942;3.644;2022-10-15T08:34:41;8.43;;;4.72;;
52948;SDS011;38812;50.942;3.644;2022-10-15T08:37:06;4.82;;;3.55;;
52948;SDS011;38812;50.942;3.644;2022-10-15T08:39:32;5.57;;;4.13;;
52948;SDS011;38812;50.942;3.644;2022-10-15T08:41:58;4.28;;;3.53;;
52948;SDS011;38812;50.942;3.644;2022-10-15T08:45:01;4.28;;;3.53;;
52948;SDS011;38812;50.942;3.644;2022-10-15T08:47:25;6.43;;;3.85;;
52948;SDS011;38812;50.942;3.644;2022-10-15T08:50:04;4.13;;;3.72;;
52948;SDS011;38812;50.942;3.644;2022-10-15T08:52:54;5.20;;;4.38;;
52948;SDS011;38812;50.942;3.644;2022-10-15T08:55:23;5.50;;;5.00;;
52948;SDS011;38812;50.942;3.644;2022-10-15T08:57:59;7.15;;;5.90;;
52948;SDS011;38812;50.942;3.644;2022-10-15T09:00:40;5.85;;;5.07;;
52948;SDS011;38812;50.942;3.644;2022-10-15T09:13:58;4.07;;;3.42;;
52948;SDS011;38812;50.942;3.644;2022-10-15T09:16:24;4.88;;;3.70;;
52948;SDS011;38812;50.942;3.644;2022-10-15T09:18:57;3.40;;;2.58;;
52948;SDS011;38812;50.942;3.644;2022-10-15T09:21:26;3.20;;;2.90;;
52948;SDS011;38812;50.942;3.644;2022-10-15T09:23:54;2.88;;;2.30;;
52948;SDS011;38812;50.942;3.644;2022-10-15T09:26:29;4.40;;;2.13;;
52948;SDS011;38812;50.942;3.644;2022-10-15T09:29:30;3.08;;;1.58;;
52948;SDS011;38812;50.942;3.644;2022-10-15T09:32:35;2.95;;;1.75;;
52948;SDS011;38812;50.942;3.644;2022-10-15T09:35:18;2.72;;;1.55;;
52948;SDS011;38812;50.942;3.644;2022-10-15T09:43:19;1.40;;;1.30;;
52948;SDS011;38812;50.942;3.644;2022-10-15T09:45:55;1.55;;;1.10;;
52948;SDS011;38812;50.942;3.644;2022-10-15T09:48:21;2.03;;;1.30;;
52948;SDS011;38812;50.942;3.644;2022-10-15T09:51:09;2.08;;;1.13;;
52948;SDS011;38812;50.942;3.644;2022-10-15T09:56:45;3.92;;;1.10;;
52948;SDS011;38812;50.942;3.644;2022-10-15T09:59:17;0.98;;;0.98;;
52948;SDS011;38812;50.942;3.644;2022-10-15T10:04:45;3.33;;;0.80;;
52948;SDS011;38812;50.942;3.644;2022-10-15T10:07:33;1.85;;;0.80;;
52948;SDS011;38812;50.942;3.644;2022-10-15T10:12:51;2.88;;;0.80;;
52948;SDS011;38812;50.942;3.644;2022-10-15T10:17:53;0.85;;;0.65;;
52948;SDS011;38812;50.942;3.644;2022-10-15T10:20:20;1.30;;;0.88;;
52948;SDS011;38812;50.942;3.644;2022-10-15T10:25:28;0.82;;;0.70;;
52948;SDS011;38812;50.942;3.644;2022-10-15T10:28:21;1.38;;;0.85;;
52948;SDS011;38812;50.942;3.644;2022-10-15T10:31:10;1.20;;;0.80;;
52948;SDS011;38812;50.942;3.644;2022-10-15T10:33:46;1.92;;;0.95;;
52948;SDS011;38812;50.942;3.644;2022-10-15T10:36:18;2.67;;;0.70;;
52948;SDS011;38812;50.942;3.644;2022-10-15T10:39:00;1.80;;;0.85;;
52948;SDS011;38812;50.942;3.644;2022-10-15T10:41:54;2.55;;;0.80;;
52948;SDS011;38812;50.942;3.644;2022-10-15T10:44:34;6.50;;;0.98;;
52948;SDS011;38812;50.942;3.644;2022-10-15T10:47:11;1.30;;;0.82;;
52948;SDS011;38812;50.942;3.644;2022-10-15T10:49:41;0.95;;;0.80;;
52948;SDS011;38812;50.942;3.644;2022-10-15T10:52:29;4.80;;;1.25;;
52948;SDS011;38812;50.942;3.644;2022-10-15T11:00:43;1.33;;;1.23;;
52948;SDS011;38812;50.942;3.644;2022-10-15T11:03:24;1.50;;;1.33;;
52948;SDS011;38812;50.942;3.644;2022-10-15T11:09:09;2.60;;;1.45;;
52948;SDS011;38812;50.942;3.644;2022-10-15T11:20:07;4.45;;;0.60;;
52948;SDS011;38812;50.942;3.644;2022-10-15T11:25:38;2.72;;;0.50;;
52948;SDS011;38812;50.942;3.644;2022-10-15T11:34:13;2.25;;;0.60;;
52948;SDS011;38812;50.942;3.644;2022-10-15T11:36:44;2.03;;;0.65;;
52948;SDS011;38812;50.942;3.644;2022-10-15T11:42:29;2.75;;;0.80;;
52948;SDS011;38812;50.942;3.644;2022-10-15T11:45:05;3.08;;;0.63;;
52948;SDS011;38812;50.942;3.644;2022-10-15T11:55:50;2.15;;;0.60;;
52948;SDS011;38812;50.942;3.644;2022-10-15T11:58:26;4.80;;;0.70;;
52948;SDS011;38812;50.942;3.644;2022-10-15T12:00:55;1.92;;;0.80;;
52948;SDS011;38812;50.942;3.644;2022-10-15T12:03:25;3.75;;;0.90;;
52948;SDS011;38812;50.942;3.644;2022-10-15T12:05:54;1.33;;;0.57;;
52948;SDS011;38812;50.942;3.644;2022-10-15T12:08:25;3.75;;;0.85;;
52948;SDS011;38812;50.942;3.644;2022-10-15T12:14:04;4.30;;;1.05;;
52948;SDS011;38812;50.942;3.644;2022-10-15T12:19:52;9.68;;;1.25;;
52948;SDS011;38812;50.942;3.644;2022-10-15T12:22:33;3.50;;;1.00;;
52948;SDS011;38812;50.942;3.644;2022-10-15T12:30:32;2.35;;;0.85;;
52948;SDS011;38812;50.942;3.644;2022-10-15T12:33:01;4.03;;;1.70;;
52948;SDS011;38812;50.942;3.644;2022-10-15T12:35:37;2.90;;;1.08;;
52948;SDS011;38812;50.942;3.644;2022-10-15T12:38:11;3.97;;;1.25;;
52948;SDS011;38812;50.942;3.644;2022-10-15T12:40:43;2.85;;;0.90;;
52948;SDS011;38812;50.942;3.644;2022-10-15T12:43:13;1.65;;;0.90;;
52948;SDS011;38812;50.942;3.644;2022-10-15T12:45:51;7.13;;;1.37;;
52948;SDS011;38812;50.942;3.644;2022-10-15T12:53:53;3.78;;;0.98;;
52948;SDS011;38812;50.942;3.644;2022-10-15T12:56:34;5.47;;;0.82;;
52948;SDS011;38812;50.942;3.644;2022-10-15T13:01:50;9.70;;;1.40;;
52948;SDS011;38812;50.942;3.644;2022-10-15T13:04:16;3.70;;;0.93;;
52948;SDS011;38812;50.942;3.644;2022-10-15T13:06:42;9.68;;;1.60;;
52948;SDS011;38812;50.942;3.644;2022-10-15T13:11:36;7.63;;;0.90;;
52948;SDS011;38812;50.942;3.644;2022-10-15T13:16:43;5.65;;;1.38;;
52948;SDS011;38812;50.942;3.644;2022-10-15T13:19:17;3.33;;;0.98;;
52948;SDS011;38812;50.942;3.644;2022-10-15T13:21:48;10.60;;;3.35;;
52948;SDS011;38812;50.942;3.644;2022-10-15T13:24:20;5.10;;;1.05;;
52948;SDS011;38812;50.942;3.644;2022-10-15T13:26:48;9.68;;;1.15;;
52948;SDS011;38812;50.942;3.644;2022-10-15T13:29:19;6.13;;;1.10;;
52948;SDS011;38812;50.942;3.644;2022-10-15T13:31:47;3.97;;;0.95;;
52948;SDS011;38812;50.942;3.644;2022-10-15T13:36:51;1.75;;;0.70;;
52948;SDS011;38812;50.942;3.644;2022-10-15T13:42:17;3.40;;;1.23;;
52948;SDS011;38812;50.942;3.644;2022-10-15T13:44:56;7.07;;;1.65;;
52948;SDS011;38812;50.942;3.644;2022-10-15T13:47:36;6.00;;;0.90;;
52948;SDS011;38812;50.942;3.644;2022-10-15T13:52:57;3.70;;;0.88;;
52948;SDS011;38812;50.942;3.644;2022-10-15T13:55:27;8.30;;;1.00;;
52948;SDS011;38812;50.942;3.644;2022-10-15T13:57:59;4.25;;;1.75;;
52948;SDS011;38812;50.942;3.644;2022-10-15T14:00:28;4.25;;;0.80;;
52948;SDS011;38812;50.942;3.644;2022-10-15T14:03:12;4.75;;;1.30;;
52948;SDS011;38812;50.942;3.644;2022-10-15T14:05:39;4.47;;;1.08;;
52948;SDS011;38812;50.942;3.644;2022-10-15T14:08:04;6.65;;;1.30;;
52948;SDS011;38812;50.942;3.644;2022-10-15T14:10:30;3.17;;;0.90;;
52948;SDS011;38812;50.942;3.644;2022-10-15T14:12:55;4.10;;;0.90;;
52948;SDS011;38812;50.942;3.644;2022-10-15T14:18:06;4.47;;;0.90;;
52948;SDS011;38812;50.942;3.644;2022-10-15T14:20:32;6.00;;;1.38;;
52948;SDS011;38812;50.942;3.644;2022-10-15T14:22:58;8.20;;;2.17;;
52948;SDS011;38812;50.942;3.644;2022-10-15T14:25:23;5.63;;;1.02;;
52948;SDS011;38812;50.942;3.644;2022-10-15T14:27:50;8.80;;;1.27;;
52948;SDS011;38812;50.942;3.644;2022-10-15T14:30:31;7.53;;;1.38;;
52948;SDS011;38812;50.942;3.644;2022-10-15T14:33:00;6.25;;;1.48;;
52948;SDS011;38812;50.942;3.644;2022-10-15T14:35:35;7.00;;;1.20;;
52948;SDS011;38812;50.942;3.644;2022-10-15T14:40:29;5.22;;;1.00;;
52948;SDS011;38812;50.942;3.644;2022-10-15T14:47:50;9.10;;;1.52;;
52948;SDS011;38812;50.942;3.644;2022-10-15T14:50:25;11.32;;;2.83;;
52948;SDS011;38812;50.942;3.644;2022-10-15T14:52:53;7.88;;;1.63;;
52948;SDS011;38812;50.942;3.644;2022-10-15T14:57:48;4.32;;;1.42;;
52948;SDS011;38812;50.942;3.644;2022-10-15T15:02:55;7.97;;;1.00;;
52948;SDS011;38812;50.942;3.644;2022-10-15T15:05:23;11.45;;;1.25;;
52948;SDS011;38812;50.942;3.644;2022-10-15T15:07:50;8.90;;;0.82;;
52948;SDS011;38812;50.942;3.644;2022-10-15T15:10:16;4.35;;;1.30;;
52948;SDS011;38812;50.942;3.644;2022-10-15T15:12:44;9.55;;;1.40;;
52948;SDS011;38812;50.942;3.644;2022-10-15T15:15:15;6.03;;;1.10;;
52948;SDS011;38812;50.942;3.644;2022-10-15T15:17:42;10.18;;;1.33;;
52948;SDS011;38812;50.942;3.644;2022-10-15T15:20:09;4.82;;;1.20;;
52948;SDS011;38812;50.942;3.644;2022-10-15T15:22:35;5.53;;;1.65;;
52948;SDS011;38812;50.942;3.644;2022-10-15T15:25:02;5.70;;;1.50;;
52948;SDS011;38812;50.942;3.644;2022-10-15T15:27:37;5.57;;;2.30;;
52948;SDS011;38812;50.942;3.644;2022-10-15T15:30:04;1.83;;;0.88;;
52948;SDS011;38812;50.942;3.644;2022-10-15T15:32:31;7.05;;;1.20;;
52948;SDS011;38812;50.942;3.644;2022-10-15T15:34:56;8.88;;;1.80;;
52948;SDS011;38812;50.942;3.644;2022-10-15T15:37:22;9.07;;;1.02;;
52948;SDS011;38812;50.942;3.644;2022-10-15T15:39:49;2.83;;;1.05;;
52948;SDS011;38812;50.942;3.644;2022-10-15T15:42:19;6.00;;;1.48;;
52948;SDS011;38812;50.942;3.644;2022-10-15T15:44:46;5.30;;;1.85;;
52948;SDS011;38812;50.942;3.644;2022-10-15T15:47:12;6.82;;;1.63;;
52948;SDS011;38812;50.942;3.644;2022-10-15T15:49:38;3.95;;;1.30;;
52948;SDS011;38812;50.942;3.644;2022-10-15T15:52:04;3.35;;;0.90;;
52948;SDS011;38812;50.942;3.644;2022-10-15T15:54:32;5.88;;;1.40;;
52948;SDS011;38812;50.942;3.644;2022-10-15T15:56:58;5.57;;;1.25;;
52948;SDS011;38812;50.942;3.644;2022-10-15T15:59:23;7.53;;;1.48;;
52948;SDS011;38812;50.942;3.644;2022-10-15T16:01:49;6.68;;;1.63;;
52948;SDS011;38812;50.942;3.644;2022-10-15T16:04:14;3.53;;;1.30;;
52948;SDS011;38812;50.942;3.644;2022-10-15T16:06:39;3.70;;;1.08;;
52948;SDS011;38812;50.942;3.644;2022-10-15T16:09:06;6.57;;;1.63;;
52948;SDS011;38812;50.942;3.644;2022-10-15T16:11:32;8.93;;;1.30;;
52948;SDS011;38812;50.942;3.644;2022-10-15T16:13:57;5.30;;;1.00;;
52948;SDS011;38812;50.942;3.644;2022-10-15T16:16:23;5.57;;;0.98;;
52948;SDS011;38812;50.942;3.644;2022-10-15T16:18:49;6.93;;;1.30;;
52948;SDS011;38812;50.942;3.644;2022-10-15T16:21:22;3.47;;;0.82;;
52948;SDS011;38812;50.942;3.644;2022-10-15T16:23:48;9.27;;;1.38;;
52948;SDS011;38812;50.942;3.644;2022-10-15T16:26:14;3.80;;;1.05;;
52948;SDS011;38812;50.942;3.644;2022-10-15T16:28:39;7.45;;;1.48;;
52948;SDS011;38812;50.942;3.644;2022-10-15T16:31:15;8.88;;;2.50;;
52948;SDS011;38812;50.942;3.644;2022-10-15T16:33:42;3.00;;;1.42;;
52948;SDS011;38812;50.942;3.644;2022-10-15T16:36:07;4.97;;;1.20;;
52948;SDS011;38812;50.942;3.644;2022-10-15T16:38:33;7.55;;;2.47;;
52948;SDS011;38812;50.942;3.644;2022-10-15T16:40:59;6.85;;;1.05;;
52948;SDS011;38812;50.942;3.644;2022-10-15T16:43:24;5.93;;;1.30;;
52948;SDS011;38812;50.942;3.644;2022-10-15T16:45:53;4.70;;;1.20;;
52948;SDS011;38812;50.942;3.644;2022-10-15T16:48:22;2.47;;;1.00;;
52948;SDS011;38812;50.942;3.644;2022-10-15T16:50:58;3.42;;;0.82;;
52948;SDS011;38812;50.942;3.644;2022-10-15T16:53:25;6.25;;;0.98;;
52948;SDS011;38812;50.942;3.644;2022-10-15T16:55:50;5.00;;;0.85;;
52948;SDS011;38812;50.942;3.644;2022-10-15T16:58:16;7.60;;;1.63;;
52948;SDS011;38812;50.942;3.644;2022-10-15T17:00:41;5.35;;;1.08;;
52948;SDS011;38812;50.942;3.644;2022-10-15T17:03:07;4.45;;;1.40;;
52948;SDS011;38812;50.942;3.644;2022-10-15T17:05:32;7.43;;;1.10;;
52948;SDS011;38812;50.942;3.644;2022-10-15T17:07:58;7.78;;;1.55;;
52948;SDS011;38812;50.942;3.644;2022-10-15T17:10:23;5.57;;;1.23;;
52948;SDS011;38812;50.942;3.644;2022-10-15T17:12:50;4.22;;;1.55;;
52948;SDS011;38812;50.942;3.644;2022-10-15T17:15:16;6.93;;;1.40;;
52948;SDS011;38812;50.942;3.644;2022-10-15T17:17:41;4.53;;;1.40;;